Terminal Aerodrome Forecast
Issued by NWS

Home | Current Version | Previous Version | Text Only | Print | Product List | Glossary Off
Versions: 1 2 3 4 5 6 7 8 9 10 11 12 13 14 15 16 17 18 19 20 21 22 23 24 25 26 27 28 29 30 31 32 33 34 35 36 37 38 39 40 41 42 43 44 45

525
FTUS43 KLOT 260254 AAA
TAFGYY
TAF AMD
KGYY 260254Z 2603/2624 29016G25KT P6SM BKN028 BKN080
     FM260500 28013G21KT P6SM VCSH FEW030 OVC080
      TEMPO 2606/2608 6SM -SHRA
     FM260800 27012G18KT P6SM BKN080 BKN120
     FM261500 27017G30KT P6SM SCT050=

USA.gov is the U.S. government's official web portal to all federal, state and local government web resources and services.